Harrison Township, Michigan
Current Conditions -  °F | °C
As of 3:58 AM on Monday 20 Oct 2014 (Local Time) from KMTC Reporting Station
Overcast Overcast  
Wind Chill: 50°   Ceiling: 8000
Heat Index: 50°   Visibility: 10mi
Dew Point: 36°   Wind: 9mph
Humidity: 59%   Direction: 210°SSW
Pressure: 29.88"   Gusts: NA
Location:  42.58°N, 82.83°W
Report Text: KMTC 200758Z AUTO 21008KT 10SM OVC080 10/02 A2988 RMK AO2 SLP124 T01000024 $
Loading
Personal Weather Stations






























Interactive Weather Map
Tropical Storm Tracking
New forecast layout! Learn more

10-Day Weather Forecast

Advertisements
Track Severe Weather on mobile